sensor_id;sensor_type;location;lat;lon;timestamp;pressure;altitude;pressure_sealevel;temperature;humidity
34674;BME280;20879;55.668;37.858;2024-03-25T00:02:08;97966.00;;;4.65;100.00
34674;BME280;20879;55.668;37.858;2024-03-25T00:07:20;97982.69;;;4.41;100.00
34674;BME280;20879;55.668;37.858;2024-03-25T00:12:27;98001.88;;;4.18;100.00
34674;BME280;20879;55.668;37.858;2024-03-25T00:17:35;98016.75;;;3.96;100.00
34674;BME280;20879;55.668;37.858;2024-03-25T00:22:50;98015.38;;;3.75;100.00
34674;BME280;20879;55.668;37.858;2024-03-25T00:28:02;98050.84;;;3.39;100.00
34674;BME280;20879;55.668;37.858;2024-03-25T00:33:13;98040.78;;;3.27;97.81
34674;BME280;20879;55.668;37.858;2024-03-25T00:38:19;98072.59;;;3.01;97.12
34674;BME280;20879;55.668;37.858;2024-03-25T00:43:31;98067.56;;;2.96;95.28
34674;BME280;20879;55.668;37.858;2024-03-25T00:48:37;98064.28;;;2.82;93.80
34674;BME280;20879;55.668;37.858;2024-03-25T00:53:49;98083.97;;;2.72;93.44
34674;BME280;20879;55.668;37.858;2024-03-25T00:58:58;98087.34;;;2.77;93.64
34674;BME280;20879;55.668;37.858;2024-03-25T01:04:07;98043.94;;;2.73;92.86
34674;BME280;20879;55.668;37.858;2024-03-25T01:09:26;98083.47;;;2.35;92.87
34674;BME280;20879;55.668;37.858;2024-03-25T01:14:35;98118.28;;;2.47;93.06
34674;BME280;20879;55.668;37.858;2024-03-25T01:19:40;98129.31;;;2.50;93.00
34674;BME280;20879;55.668;37.858;2024-03-25T01:24:53;98142.13;;;2.45;92.80
34674;BME280;20879;55.668;37.858;2024-03-25T01:30:08;98124.25;;;2.47;91.45
34674;BME280;20879;55.668;37.858;2024-03-25T01:35:13;98135.31;;;2.44;91.93
34674;BME280;20879;55.668;37.858;2024-03-25T01:40:19;98131.91;;;2.45;92.14
34674;BME280;20879;55.668;37.858;2024-03-25T01:45:29;98123.44;;;2.43;92.41
34674;BME280;20879;55.668;37.858;2024-03-25T01:50:36;98136.28;;;2.31;90.44
34674;BME280;20879;55.668;37.858;2024-03-25T01:55:44;98167.84;;;2.24;91.62
34674;BME280;20879;55.668;37.858;2024-03-25T02:00:53;98189.13;;;2.26;90.94
34674;BME280;20879;55.668;37.858;2024-03-25T02:06:06;98164.50;;;2.16;91.47
34674;BME280;20879;55.668;37.858;2024-03-25T02:11:14;98134.03;;;1.86;91.67
34674;BME280;20879;55.668;37.858;2024-03-25T02:16:22;98196.84;;;2.14;92.12
34674;BME280;20879;55.668;37.858;2024-03-25T02:21:50;98208.78;;;2.08;91.37
34674;BME280;20879;55.668;37.858;2024-03-25T02:27:04;98202.88;;;2.00;92.29
34674;BME280;20879;55.668;37.858;2024-03-25T02:32:11;98194.44;;;1.83;92.08
34674;BME280;20879;55.668;37.858;2024-03-25T02:37:15;98238.72;;;1.80;93.15
34674;BME280;20879;55.668;37.858;2024-03-25T02:42:30;98237.81;;;1.92;93.50
34674;BME280;20879;55.668;37.858;2024-03-25T02:47:41;98254.81;;;1.98;93.42
34674;BME280;20879;55.668;37.858;2024-03-25T02:52:54;98241.13;;;2.06;92.61
34674;BME280;20879;55.668;37.858;2024-03-25T02:58:18;98277.78;;;2.02;91.65
34674;BME280;20879;55.668;37.858;2024-03-25T03:03:26;98266.72;;;1.94;92.27
34674;BME280;20879;55.668;37.858;2024-03-25T03:08:32;98280.34;;;1.93;91.94
34674;BME280;20879;55.668;37.858;2024-03-25T03:13:42;98278.66;;;1.95;92.52
34674;BME280;20879;55.668;37.858;2024-03-25T03:18:49;98267.53;;;2.08;91.25
34674;BME280;20879;55.668;37.858;2024-03-25T03:24:05;98275.22;;;1.99;91.30
34674;BME280;20879;55.668;37.858;2024-03-25T03:29:13;98292.25;;;1.94;91.42
34674;BME280;20879;55.668;37.858;2024-03-25T03:34:29;98316.97;;;1.81;92.01
34674;BME280;20879;55.668;37.858;2024-03-25T03:39:36;98319.50;;;1.86;92.12
34674;BME280;20879;55.668;37.858;2024-03-25T03:44:52;98293.09;;;1.90;91.86
34674;BME280;20879;55.668;37.858;2024-03-25T03:50:03;98324.56;;;1.98;91.25
34674;BME280;20879;55.668;37.858;2024-03-25T03:55:14;98331.38;;;1.96;92.04
34674;BME280;20879;55.668;37.858;2024-03-25T04:00:25;98322.84;;;2.00;92.06
34674;BME280;20879;55.668;37.858;2024-03-25T04:05:32;98338.16;;;2.02;92.25
34674;BME280;20879;55.668;37.858;2024-03-25T04:10:40;98348.41;;;1.97;92.45
34674;BME280;20879;55.668;37.858;2024-03-25T04:15:49;98351.78;;;2.08;91.28
34674;BME280;20879;55.668;37.858;2024-03-25T04:20:55;98353.50;;;2.08;90.74
34674;BME280;20879;55.668;37.858;2024-03-25T04:26:01;98366.16;;;2.31;89.84
34674;BME280;20879;55.668;37.858;2024-03-25T04:31:23;98380.63;;;2.37;89.07
34674;BME280;20879;55.668;37.858;2024-03-25T04:36:30;98391.69;;;2.40;89.15
34674;BME280;20879;55.668;37.858;2024-03-25T04:41:38;98408.69;;;2.44;88.12
34674;BME280;20879;55.668;37.858;2024-03-25T04:46:50;98403.56;;;2.57;86.68
34674;BME280;20879;55.668;37.858;2024-03-25T04:51:56;98432.56;;;2.42;86.19
34674;BME280;20879;55.668;37.858;2024-03-25T04:57:01;98429.97;;;2.54;85.94
34674;BME280;20879;55.668;37.858;2024-03-25T05:02:18;98424.88;;;2.51;85.68
34674;BME280;20879;55.668;37.858;2024-03-25T05:07:29;98427.41;;;2.54;84.94
34674;BME280;20879;55.668;37.858;2024-03-25T05:12:42;98455.50;;;2.56;84.55
34674;BME280;20879;55.668;37.858;2024-03-25T05:18:06;98473.38;;;2.70;84.70
34674;BME280;20879;55.668;37.858;2024-03-25T05:23:21;98473.38;;;2.70;83.71
34674;BME280;20879;55.668;37.858;2024-03-25T05:28:30;98479.28;;;2.79;83.86
34674;BME280;20879;55.668;37.858;2024-03-25T05:33:39;98476.63;;;3.03;83.25
34674;BME280;20879;55.668;37.858;2024-03-25T05:38:45;98483.34;;;3.28;82.15
34674;BME280;20879;55.668;37.858;2024-03-25T05:44:03;98508.03;;;3.36;81.49
34674;BME280;20879;55.668;37.858;2024-03-25T05:49:15;98518.22;;;3.45;82.20
34674;BME280;20879;55.668;37.858;2024-03-25T05:54:26;98523.28;;;3.49;80.99
34674;BME280;20879;55.668;37.858;2024-03-25T05:59:31;98528.25;;;3.74;81.19
34674;BME280;20879;55.668;37.858;2024-03-25T06:04:49;98520.44;;;3.94;79.04
34674;BME280;20879;55.668;37.858;2024-03-25T06:10:08;98545.31;;;3.78;78.72
34674;BME280;20879;55.668;37.858;2024-03-25T06:15:15;98557.16;;;3.92;78.96
34674;BME280;20879;55.668;37.858;2024-03-25T06:20:29;98549.22;;;4.24;77.27
34674;BME280;20879;55.668;37.858;2024-03-25T06:25:36;98570.75;;;4.05;76.75
34674;BME280;20879;55.668;37.858;2024-03-25T06:30:44;98570.03;;;3.84;76.60
34674;BME280;20879;55.668;37.858;2024-03-25T06:36:05;98569.94;;;3.96;76.94
34674;BME280;20879;55.668;37.858;2024-03-25T06:41:11;98581.84;;;4.03;76.08
34674;BME280;20879;55.668;37.858;2024-03-25T06:46:16;98573.34;;;4.00;75.60
34674;BME280;20879;55.668;37.858;2024-03-25T06:51:23;98598.78;;;4.26;76.43
34674;BME280;20879;55.668;37.858;2024-03-25T06:56:32;98614.69;;;4.64;75.15
34674;BME280;20879;55.668;37.858;2024-03-25T07:01:46;98616.91;;;5.02;74.08
34674;BME280;20879;55.668;37.858;2024-03-25T07:07:09;98625.63;;;5.60;72.25
34674;BME280;20879;55.668;37.858;2024-03-25T07:12:15;98620.72;;;6.09;72.10
34674;BME280;20879;55.668;37.858;2024-03-25T07:17:21;98642.44;;;5.86;71.21
34674;BME280;20879;55.668;37.858;2024-03-25T07:22:34;98660.75;;;5.60;70.96
34674;BME280;20879;55.668;37.858;2024-03-25T07:27:39;98666.16;;;6.07;70.01
34674;BME280;20879;55.668;37.858;2024-03-25T07:32:44;98676.59;;;5.94;69.85
34674;BME280;20879;55.668;37.858;2024-03-25T07:37:54;98681.91;;;6.44;68.80
34674;BME280;20879;55.668;37.858;2024-03-25T07:43:02;98688.06;;;6.89;68.06
34674;BME280;20879;55.668;37.858;2024-03-25T07:48:07;98664.53;;;7.57;67.33
34674;BME280;20879;55.668;37.858;2024-03-25T07:53:16;98686.13;;;7.03;63.78
34674;BME280;20879;55.668;37.858;2024-03-25T07:58:21;98696.22;;;6.62;64.41
34674;BME280;20879;55.668;37.858;2024-03-25T08:03:31;98700.50;;;7.15;64.96
34674;BME280;20879;55.668;37.858;2024-03-25T08:08:47;98701.91;;;7.77;62.04
34674;BME280;20879;55.668;37.858;2024-03-25T08:14:03;98665.66;;;8.25;60.95
34674;BME280;20879;55.668;37.858;2024-03-25T08:19:09;98682.00;;;7.41;60.37
34674;BME280;20879;55.668;37.858;2024-03-25T08:24:16;98694.47;;;7.17;60.37
34674;BME280;20879;55.668;37.858;2024-03-25T08:29:24;98703.75;;;7.26;60.61
34674;BME280;20879;55.668;37.858;2024-03-25T08:34:30;98714.66;;;7.39;60.54
34674;BME280;20879;55.668;37.858;2024-03-25T08:39:42;98711.72;;;7.59;59.30
34674;BME280;20879;55.668;37.858;2024-03-25T08:44:50;98711.25;;;8.25;58.72
34674;BME280;20879;55.668;37.858;2024-03-25T08:49:55;98705.59;;;8.84;57.32
34674;BME280;20879;55.668;37.858;2024-03-25T08:55:04;98709.53;;;8.64;57.53
34674;BME280;20879;55.668;37.858;2024-03-25T09:00:14;98714.88;;;8.56;57.29
34674;BME280;20879;55.668;37.858;2024-03-25T09:05:30;98723.72;;;8.45;58.14
34674;BME280;20879;55.668;37.858;2024-03-25T09:10:53;98726.75;;;8.62;56.85
34674;BME280;20879;55.668;37.858;2024-03-25T09:16:13;98731.25;;;8.90;56.68
34674;BME280;20879;55.668;37.858;2024-03-25T09:21:23;98742.66;;;9.17;56.88
34674;BME280;20879;55.668;37.858;2024-03-25T09:26:32;98740.56;;;8.61;53.63
34674;BME280;20879;55.668;37.858;2024-03-25T09:31:39;98737.47;;;8.44;55.68
34674;BME280;20879;55.668;37.858;2024-03-25T09:36:44;98739.38;;;8.35;54.61
34674;BME280;20879;55.668;37.858;2024-03-25T09:41:58;98752.50;;;8.25;55.58
34674;BME280;20879;55.668;37.858;2024-03-25T09:47:16;98751.03;;;8.13;55.82
34674;BME280;20879;55.668;37.858;2024-03-25T09:52:27;98766.66;;;7.58;56.53
34674;BME280;20879;55.668;37.858;2024-03-25T09:57:37;98760.53;;;7.17;57.56
34674;BME280;20879;55.668;37.858;2024-03-25T10:02:46;98769.56;;;7.41;57.52
34674;BME280;20879;55.668;37.858;2024-03-25T10:07:53;98755.22;;;7.75;56.56
34674;BME280;20879;55.668;37.858;2024-03-25T10:13:01;98761.97;;;7.82;55.21
34674;BME280;20879;55.668;37.858;2024-03-25T10:18:12;98753.81;;;8.02;55.91
34674;BME280;20879;55.668;37.858;2024-03-25T10:23:24;98743.59;;;7.97;55.86
34674;BME280;20879;55.668;37.858;2024-03-25T10:28:31;98762.72;;;7.87;55.16
34674;BME280;20879;55.668;37.858;2024-03-25T10:33:36;98740.34;;;7.44;55.31
34674;BME280;20879;55.668;37.858;2024-03-25T10:38:43;98756.31;;;7.61;55.52
34674;BME280;20879;55.668;37.858;2024-03-25T10:43:56;98758.78;;;7.67;55.11
34674;BME280;20879;55.668;37.858;2024-03-25T10:49:14;98767.25;;;7.74;55.22
34674;BME280;20879;55.668;37.858;2024-03-25T10:54:29;98770.75;;;7.70;54.89
34674;BME280;20879;55.668;37.858;2024-03-25T10:59:38;98736.69;;;7.56;55.39
34674;BME280;20879;55.668;37.858;2024-03-25T11:04:50;98779.38;;;8.14;55.29
34674;BME280;20879;55.668;37.858;2024-03-25T11:10:10;98776.28;;;8.39;54.38
34674;BME280;20879;55.668;37.858;2024-03-25T11:15:21;98768.72;;;8.30;54.77
34674;BME280;20879;55.668;37.858;2024-03-25T11:20:27;98778.28;;;8.65;55.04
34674;BME280;20879;55.668;37.858;2024-03-25T11:25:41;98773.97;;;8.67;53.87
34674;BME280;20879;55.668;37.858;2024-03-25T11:30:49;98780.28;;;8.54;53.76
34674;BME280;20879;55.668;37.858;2024-03-25T11:36:10;98786.16;;;8.61;53.32
34674;BME280;20879;55.668;37.858;2024-03-25T11:41:21;98774.09;;;8.19;54.05
34674;BME280;20879;55.668;37.858;2024-03-25T11:46:39;98779.25;;;7.75;54.83
34674;BME280;20879;55.668;37.858;2024-03-25T11:51:53;98795.50;;;7.79;55.39
34674;BME280;20879;55.668;37.858;2024-03-25T11:57:01;98811.44;;;7.99;53.96
34674;BME280;20879;55.668;37.858;2024-03-25T12:02:08;98805.41;;;8.00;54.14
34674;BME280;20879;55.668;37.858;2024-03-25T12:07:19;98802.75;;;8.49;54.12
34674;BME280;20879;55.668;37.858;2024-03-25T12:12:29;98806.41;;;8.37;53.38
34674;BME280;20879;55.668;37.858;2024-03-25T12:17:47;98791.38;;;8.14;54.01
34674;BME280;20879;55.668;37.858;2024-03-25T12:22:54;98814.50;;;8.62;54.09
34674;BME280;20879;55.668;37.858;2024-03-25T12:28:00;98821.19;;;9.10;53.31
34674;BME280;20879;55.668;37.858;2024-03-25T12:33:08;98815.16;;;8.72;53.06
34674;BME280;20879;55.668;37.858;2024-03-25T12:47:22;98799.19;;;8.11;53.56
34674;BME280;20879;55.668;37.858;2024-03-25T12:52:36;98815.16;;;8.30;53.31
34674;BME280;20879;55.668;37.858;2024-03-25T12:57:51;98806.00;;;8.15;54.31
34674;BME280;20879;55.668;37.858;2024-03-25T13:03:03;98814.69;;;8.53;54.07
34674;BME280;20879;55.668;37.858;2024-03-25T13:08:11;98823.22;;;8.58;54.05
34674;BME280;20879;55.668;37.858;2024-03-25T13:13:25;98816.84;;;7.87;54.08
34674;BME280;20879;55.668;37.858;2024-03-25T13:18:37;98806.75;;;7.26;54.32
34674;BME280;20879;55.668;37.858;2024-03-25T13:23:48;98819.19;;;6.96;55.54
34674;BME280;20879;55.668;37.858;2024-03-25T13:28:55;98813.31;;;6.90;55.84
34674;BME280;20879;55.668;37.858;2024-03-25T13:34:06;98819.38;;;6.84;55.40
34674;BME280;20879;55.668;37.858;2024-03-25T13:39:17;98807.03;;;6.45;55.86
34674;BME280;20879;55.668;37.858;2024-03-25T13:44:29;98820.03;;;6.36;56.12
34674;BME280;20879;55.668;37.858;2024-03-25T13:49:36;98822.63;;;6.33;56.23
34674;BME280;20879;55.668;37.858;2024-03-25T13:54:45;98831.25;;;6.29;56.17
34674;BME280;20879;55.668;37.858;2024-03-25T13:59:52;98833.00;;;6.27;56.44
34674;BME280;20879;55.668;37.858;2024-03-25T14:05:02;98827.84;;;6.28;56.11
34674;BME280;20879;55.668;37.858;2024-03-25T14:10:22;98828.69;;;6.27;56.23
34674;BME280;20879;55.668;37.858;2024-03-25T14:15:29;98836.44;;;6.24;56.21
34674;BME280;20879;55.668;37.858;2024-03-25T14:20:42;98839.06;;;6.20;56.40
34674;BME280;20879;55.668;37.858;2024-03-25T14:25:47;98835.63;;;6.22;57.05
34674;BME280;20879;55.668;37.858;2024-03-25T14:30:54;98839.53;;;6.53;57.23
34674;BME280;20879;55.668;37.858;2024-03-25T14:36:03;98839.22;;;6.76;57.43
34674;BME280;20879;55.668;37.858;2024-03-25T14:41:20;98843.16;;;7.02;57.25
34674;BME280;20879;55.668;37.858;2024-03-25T14:46:30;98849.81;;;7.15;57.08
34674;BME280;20879;55.668;37.858;2024-03-25T14:51:40;98849.16;;;7.00;57.51
34674;BME280;20879;55.668;37.858;2024-03-25T14:56:46;98851.00;;;6.91;58.67
34674;BME280;20879;55.668;37.858;2024-03-25T15:02:02;98854.84;;;6.62;58.99
34674;BME280;20879;55.668;37.858;2024-03-25T15:07:19;98860.25;;;6.42;59.73
34674;BME280;20879;55.668;37.858;2024-03-25T15:12:34;98864.81;;;6.17;60.30
34674;BME280;20879;55.668;37.858;2024-03-25T15:17:41;98860.81;;;5.86;61.25
34674;BME280;20879;55.668;37.858;2024-03-25T15:22:50;98869.44;;;5.79;61.75
34674;BME280;20879;55.668;37.858;2024-03-25T15:27:55;98881.53;;;5.66;62.16
34674;BME280;20879;55.668;37.858;2024-03-25T15:33:11;98879.91;;;5.54;62.38
34674;BME280;20879;55.668;37.858;2024-03-25T15:38:20;98885.00;;;5.60;62.88
34674;BME280;20879;55.668;37.858;2024-03-25T15:43:32;98901.22;;;5.69;62.32
34674;BME280;20879;55.668;37.858;2024-03-25T15:48:38;98902.09;;;5.66;62.37
34674;BME280;20879;55.668;37.858;2024-03-25T15:53:50;98910.69;;;5.59;62.92
34674;BME280;20879;55.668;37.858;2024-03-25T15:59:00;98919.38;;;5.44;63.35
34674;BME280;20879;55.668;37.858;2024-03-25T16:04:09;98917.78;;;5.26;63.92
34674;BME280;20879;55.668;37.858;2024-03-25T16:09:23;98903.34;;;5.11;64.51
34674;BME280;20879;55.668;37.858;2024-03-25T16:14:38;98923.88;;;5.11;64.57
34674;BME280;20879;55.668;37.858;2024-03-25T16:19:56;98932.38;;;5.16;64.59
34674;BME280;20879;55.668;37.858;2024-03-25T16:25:08;98909.38;;;5.02;64.19
34674;BME280;20879;55.668;37.858;2024-03-25T16:30:14;98938.38;;;5.15;64.32
34674;BME280;20879;55.668;37.858;2024-03-25T16:40:43;98946.19;;;4.97;65.26
34674;BME280;20879;55.668;37.858;2024-03-25T16:45:54;98949.69;;;4.77;65.47
34674;BME280;20879;55.668;37.858;2024-03-25T16:51:25;98948.91;;;4.50;66.92
34674;BME280;20879;55.668;37.858;2024-03-25T16:56:35;98946.41;;;4.26;67.53
34674;BME280;20879;55.668;37.858;2024-03-25T17:01:44;98958.41;;;4.17;67.74
34674;BME280;20879;55.668;37.858;2024-03-25T17:06:54;98953.28;;;4.08;68.19
34674;BME280;20879;55.668;37.858;2024-03-25T17:12:04;98964.38;;;4.02;69.07
34674;BME280;20879;55.668;37.858;2024-03-25T17:17:10;98961.81;;;3.95;68.27
34674;BME280;20879;55.668;37.858;2024-03-25T17:22:16;98968.66;;;3.82;68.98
34674;BME280;20879;55.668;37.858;2024-03-25T17:27:30;98961.81;;;3.70;69.57
34674;BME280;20879;55.668;37.858;2024-03-25T17:32:38;98957.56;;;3.60;69.31
34674;BME280;20879;55.668;37.858;2024-03-25T17:38:03;98961.81;;;3.55;69.06
34674;BME280;20879;55.668;37.858;2024-03-25T17:43:17;98968.63;;;3.40;69.34
34674;BME280;20879;55.668;37.858;2024-03-25T17:48:24;98966.84;;;3.18;70.22
34674;BME280;20879;55.668;37.858;2024-03-25T17:53:36;98972.75;;;2.93;71.10
34674;BME280;20879;55.668;37.858;2024-03-25T17:58:47;98970.94;;;2.71;72.83
34674;BME280;20879;55.668;37.858;2024-03-25T18:03:56;98982.88;;;2.69;72.47
34674;BME280;20879;55.668;37.858;2024-03-25T18:09:06;98993.13;;;2.73;73.74
34674;BME280;20879;55.668;37.858;2024-03-25T18:14:20;98994.84;;;2.77;74.51
34674;BME280;20879;55.668;37.858;2024-03-25T18:19:37;98985.53;;;2.89;74.46
34674;BME280;20879;55.668;37.858;2024-03-25T18:24:51;98994.91;;;2.90;73.08
34674;BME280;20879;55.668;37.858;2024-03-25T18:30:05;98979.56;;;2.90;73.20
34674;BME280;20879;55.668;37.858;2024-03-25T18:35:11;98995.81;;;3.07;72.26
34674;BME280;20879;55.668;37.858;2024-03-25T18:40:22;98989.91;;;3.24;71.36
34674;BME280;20879;55.668;37.858;2024-03-25T18:45:39;98984.84;;;3.44;70.10
34674;BME280;20879;55.668;37.858;2024-03-25T18:50:48;98994.28;;;3.65;69.21
34674;BME280;20879;55.668;37.858;2024-03-25T18:56:00;99006.22;;;3.75;69.31
34674;BME280;20879;55.668;37.858;2024-03-25T19:01:12;99008.78;;;3.83;69.27
34674;BME280;20879;55.668;37.858;2024-03-25T19:06:40;99013.91;;;3.86;68.90
34674;BME280;20879;55.668;37.858;2024-03-25T19:11:47;99011.34;;;3.84;69.05
34674;BME280;20879;55.668;37.858;2024-03-25T19:16:57;99002.81;;;3.87;68.69
34674;BME280;20879;55.668;37.858;2024-03-25T19:22:02;99012.22;;;3.91;68.32
34674;BME280;20879;55.668;37.858;2024-03-25T19:27:11;99006.22;;;3.91;68.16
34674;BME280;20879;55.668;37.858;2024-03-25T19:32:33;99002.81;;;3.84;68.25
34674;BME280;20879;55.668;37.858;2024-03-25T19:37:38;99005.38;;;3.85;68.17
34674;BME280;20879;55.668;37.858;2024-03-25T19:42:48;99007.06;;;3.65;68.57
34674;BME280;20879;55.668;37.858;2024-03-25T19:47:56;98995.09;;;3.50;68.87
34674;BME280;20879;55.668;37.858;2024-03-25T19:53:04;99018.09;;;3.39;69.65
34674;BME280;20879;55.668;37.858;2024-03-25T19:58:11;99029.06;;;3.03;70.59
34674;BME280;20879;55.668;37.858;2024-03-25T20:03:20;99029.78;;;2.74;71.92
34674;BME280;20879;55.668;37.858;2024-03-25T20:08:30;99039.88;;;2.54;72.68
34674;BME280;20879;55.668;37.858;2024-03-25T20:13:43;99044.03;;;2.39;73.43
34674;BME280;20879;55.668;37.858;2024-03-25T20:18:56;99050.72;;;2.22;74.83
34674;BME280;20879;55.668;37.858;2024-03-25T20:24:02;99065.13;;;2.15;75.42
34674;BME280;20879;55.668;37.858;2024-03-25T20:29:12;99067.44;;;1.87;75.99
34674;BME280;20879;55.668;37.858;2024-03-25T20:34:21;99063.16;;;1.80;77.39
34674;BME280;20879;55.668;37.858;2024-03-25T20:39:28;99055.50;;;1.80;76.83
34674;BME280;20879;55.668;37.858;2024-03-25T20:44:35;99070.03;;;1.89;77.43
34674;BME280;20879;55.668;37.858;2024-03-25T20:49:42;99069.31;;;2.02;77.66
34674;BME280;20879;55.668;37.858;2024-03-25T20:54:54;99070.31;;;2.20;77.00
34674;BME280;20879;55.668;37.858;2024-03-25T21:00:00;99066.97;;;2.29;76.86
34674;BME280;20879;55.668;37.858;2024-03-25T21:05:24;99044.81;;;2.26;76.99
34674;BME280;20879;55.668;37.858;2024-03-25T21:10:45;99073.06;;;2.46;77.02
34674;BME280;20879;55.668;37.858;2024-03-25T21:16:07;99076.47;;;2.47;77.41
34674;BME280;20879;55.668;37.858;2024-03-25T21:21:14;99079.03;;;2.50;77.52
34674;BME280;20879;55.668;37.858;2024-03-25T21:26:19;99061.94;;;2.39;77.21
34674;BME280;20879;55.668;37.858;2024-03-25T21:31:25;99084.16;;;2.50;77.56
34674;BME280;20879;55.668;37.858;2024-03-25T21:36:36;99076.47;;;2.47;77.63
34674;BME280;20879;55.668;37.858;2024-03-25T21:41:43;99078.19;;;2.46;77.53
34674;BME280;20879;55.668;37.858;2024-03-25T21:47:01;99084.94;;;2.41;78.46
34674;BME280;20879;55.668;37.858;2024-03-25T21:52:11;99078.88;;;2.31;78.30
34674;BME280;20879;55.668;37.858;2024-03-25T21:57:22;99085.72;;;2.34;78.33
34674;BME280;20879;55.668;37.858;2024-03-25T22:02:33;99087.34;;;2.25;77.99
34674;BME280;20879;55.668;37.858;2024-03-25T22:07:48;99086.47;;;2.19;78.19
34674;BME280;20879;55.668;37.858;2024-03-25T22:13:04;99088.94;;;2.08;78.69
34674;BME280;20879;55.668;37.858;2024-03-25T22:18:24;99090.53;;;1.98;79.08
34674;BME280;20879;55.668;37.858;2024-03-25T22:23:35;99089.53;;;1.82;79.04
34674;BME280;20879;55.668;37.858;2024-03-25T22:28:40;99089.44;;;1.70;79.13
34674;BME280;20879;55.668;37.858;2024-03-25T22:33:45;99084.25;;;1.67;79.33
34674;BME280;20879;55.668;37.858;2024-03-25T22:38:58;99083.31;;;1.57;80.08
34674;BME280;20879;55.668;37.858;2024-03-25T22:44:02;99100.25;;;1.50;80.48
34674;BME280;20879;55.668;37.858;2024-03-25T22:49:10;99099.22;;;1.36;80.96
34674;BME280;20879;55.668;37.858;2024-03-25T22:54:23;99103.50;;;1.38;81.23
34674;BME280;20879;55.668;37.858;2024-03-25T22:59:29;99089.19;;;1.48;80.42
34674;BME280;20879;55.668;37.858;2024-03-25T23:04:40;99103.00;;;1.67;79.83
34674;BME280;20879;55.668;37.858;2024-03-25T23:09:47;99106.47;;;1.75;79.76
34674;BME280;20879;55.668;37.858;2024-03-25T23:14:55;99100.53;;;1.77;79.52
34674;BME280;20879;55.668;37.858;2024-03-25T23:20:01;99108.22;;;1.78;79.31
34674;BME280;20879;55.668;37.858;2024-03-25T23:25:10;99107.31;;;1.71;79.78
34674;BME280;20879;55.668;37.858;2024-03-25T23:30:25;99111.41;;;1.57;79.90
34674;BME280;20879;55.668;37.858;2024-03-25T23:35:31;99108.59;;;1.37;80.92
34674;BME280;20879;55.668;37.858;2024-03-25T23:40:43;99124.63;;;1.27;81.28
34674;BME280;20879;55.668;37.858;2024-03-25T23:45:50;99114.38;;;1.22;81.43
34674;BME280;20879;55.668;37.858;2024-03-25T23:51:10;99121.25;;;1.28;81.87
34674;BME280;20879;55.668;37.858;2024-03-25T23:56:18;99122.94;;;1.27;81.19
